Time;durP1;ratioP1;P1;durP2;ratioP2;P2;SDS_P1;SDS_P2;PMS_P1;PMS_P2;Temp;Humidity;BMP_temperature;BMP_pressure;BME280_temperature;BME280_humidity;BME280_pressure;Samples;Min_cycle;Max_cycle;Signal;HPM_P1;HPM_P2
2021/03/26 08:56:41;;;;;;;26.35;21.05;;;11.00;88.10;;;;;;5883879;23;20037;-65
2021/03/26 08:59:42;;;;;;;30.67;21.30;;;11.10;87.70;;;;;;5022422;28;20134;-66
2021/03/26 09:02:19;;;;;;;24.95;19.02;;;11.20;87.20;;;;;;5028977;28;20032;-65
2021/03/26 09:05:00;;;;;;;23.55;19.15;;;11.30;86.80;;;;;;5037645;28;20040;-64
2021/03/26 09:07:44;;;;;;;26.05;20.05;;;11.50;86.90;;;;;;5019273;28;20026;-65
2021/03/26 09:10:34;;;;;;;25.20;18.55;;;11.50;86.60;;;;;;5035280;28;20033;-63
2021/03/26 09:13:10;;;;;;;25.38;19.73;;;11.70;85.90;;;;;;5033651;28;20033;-65
2021/03/26 09:16:05;;;;;;;24.10;19.08;;;11.70;84.50;;;;;;5021001;28;20029;-67
2021/03/26 09:18:40;;;;;;;28.42;19.10;;;11.80;84.20;;;;;;5010736;28;20460;-67
2021/03/26 09:21:30;;;;;;;22.63;17.00;;;11.80;84.00;;;;;;5026597;28;20034;-66
2021/03/26 09:24:31;;;;;;;24.13;16.80;;;11.90;83.50;;;;;;5031969;28;20389;-69
2021/03/26 09:27:11;;;;;;;22.98;16.75;;;12.00;83.30;;;;;;5025498;28;20030;-68
2021/03/26 09:30:01;;;;;;;22.55;16.35;;;12.10;83.00;;;;;;5029893;28;20061;-69
2021/03/26 09:32:34;;;;;;;20.67;16.35;;;12.30;82.40;;;;;;5032639;28;20029;-69
2021/03/26 09:35:15;;;;;;;20.38;15.95;;;12.40;82.00;;;;;;5035022;28;20477;-70
2021/03/26 09:37:55;;;;;;;20.73;16.25;;;12.60;81.20;;;;;;5025344;28;20040;-69
2021/03/26 09:40:34;;;;;;;19.13;15.75;;;13.00;80.30;;;;;;5024126;28;20029;-69
2021/03/26 09:43:18;;;;;;;19.08;14.75;;;13.30;79.40;;;;;;5018737;28;20033;-66
2021/03/26 09:46:04;;;;;;;24.55;15.05;;;13.60;77.90;;;;;;5015147;28;20065;-67
2021/03/26 09:48:57;;;;;;;20.33;15.18;;;13.90;77.00;;;;;;5014466;28;20030;-66
2021/03/26 09:51:41;;;;;;;20.02;15.70;;;14.00;76.00;;;;;;5015516;28;20108;-66
2021/03/26 09:54:38;;;;;;;19.95;15.18;;;14.00;75.10;;;;;;5031117;28;20026;-69
2021/03/26 09:57:22;;;;;;;19.08;13.82;;;14.00;74.90;;;;;;5036743;28;20025;-68
2021/03/26 10:00:12;;;;;;;20.73;14.68;;;14.00;74.90;;;;;;5018622;28;20049;-69
2021/03/26 10:02:42;;;;;;;20.52;15.52;;;13.90;74.90;;;;;;5025041;28;20040;-73
2021/03/26 10:05:39;;;;;;;17.63;14.75;;;13.90;74.80;;;;;;5033908;28;20037;-69
2021/03/26 10:11:13;;;;;;;16.35;11.73;;;14.10;73.10;;;;;;4986024;28;20725;-68
2021/03/26 10:13:42;;;;;;;;;;;14.20;72.50;;;;;;5029760;28;20036;-68
2021/03/26 10:16:10;;;;;;;13.60;10.35;;;14.40;71.80;;;;;;5030214;28;20040;-66
2021/03/26 10:18:47;;;;;;;12.77;10.30;;;14.50;70.30;;;;;;5032503;28;20037;-68
2021/03/26 10:21:26;;;;;;;15.05;10.18;;;14.70;69.70;;;;;;5034007;28;20026;-68
2021/03/26 10:23:57;;;;;;;13.70;10.02;;;14.80;68.30;;;;;;5025826;28;20532;-68
2021/03/26 10:26:38;;;;;;;;;;;14.90;68.50;;;;;;5026413;28;20457;-68
2021/03/26 10:29:12;;;;;;;13.23;8.20;;;14.90;67.50;;;;;;5020268;28;19909;-66
2021/03/26 10:31:39;;;;;;;14.50;9.40;;;15.00;68.30;;;;;;5017671;28;20049;-68
2021/03/26 10:34:16;;;;;;;13.52;9.77;;;15.00;68.10;;;;;;5012932;28;20925;-69
2021/03/26 10:36:53;;;;;;;14.30;9.18;;;15.00;68.00;;;;;;5014224;28;20088;-68
2021/03/26 10:39:43;;;;;;;13.70;8.57;;;15.10;68.00;;;;;;5014635;28;20030;-69
2021/03/26 10:42:20;;;;;;;14.15;7.68;;;15.20;67.30;;;;;;5024027;28;20022;-66
2021/03/26 10:45:13;;;;;;;11.18;6.93;;;15.20;66.40;;;;;;5029996;28;20567;-69
2021/03/26 10:47:50;;;;;;;12.50;7.30;;;15.30;65.20;;;;;;5027159;28;20033;-72
2021/03/26 10:50:41;;;;;;;13.25;6.90;;;15.30;65.30;;;;;;5029154;28;20075;-67
2021/03/26 10:53:12;;;;;;;13.52;7.05;;;15.40;65.00;;;;;;5029964;28;20036;-73
2021/03/26 10:55:53;;;;;;;10.15;6.07;;;15.50;65.20;;;;;;5021407;28;20025;-71
2021/03/26 10:58:31;;;;;;;9.30;5.78;;;15.50;64.50;;;;;;5031895;28;20057;-69
2021/03/26 11:01:10;;;;;;;10.02;5.72;;;15.50;63.50;;;;;;5031805;28;20033;-66
2021/03/26 11:04:06;;;;;;;10.73;5.38;;;15.50;63.20;;;;;;5032342;28;20087;-70
2021/03/26 11:06:42;;;;;;;9.05;4.28;;;15.50;63.00;;;;;;5030943;28;20167;-74
2021/03/26 11:09:35;;;;;;;7.57;3.72;;;15.40;61.70;;;;;;5026852;28;20021;-69
2021/03/26 11:12:24;;;;;;;6.88;3.60;;;15.40;62.10;;;;;;5024667;28;20199;-67
2021/03/26 11:15:10;;;;;;;9.88;4.60;;;15.50;62.20;;;;;;5020203;28;20362;-70
2021/03/26 11:17:57;;;;;;;9.15;4.53;;;15.50;61.80;;;;;;5018564;28;20079;-67
2021/03/26 11:20:29;;;;;;;7.00;3.55;;;15.50;61.20;;;;;;5032995;28;20022;-72
2021/03/26 11:23:00;;;;;;;7.10;3.60;;;15.40;60.20;;;;;;5032667;28;20049;-68
2021/03/26 11:25:42;;;;;;;11.52;3.80;;;15.40;60.70;;;;;;5027314;28;20116;-68
2021/03/26 11:28:32;;;;;;;8.18;3.72;;;15.50;60.50;;;;;;5013341;28;20069;-68
2021/03/26 11:31:21;;;;;;;9.15;3.50;;;15.40;60.50;;;;;;5029108;28;20382;-67
2021/03/26 11:34:06;;;;;;;8.73;4.07;;;15.40;60.60;;;;;;5009919;28;20045;-67
2021/03/26 11:36:35;;;;;;;10.43;3.97;;;15.40;61.00;;;;;;5032690;28;20022;-66
2021/03/26 11:39:06;;;;;;;6.60;3.70;;;15.50;61.00;;;;;;5014230;28;20030;-67
2021/03/26 11:41:50;;;;;;;13.38;3.70;;;15.60;59.90;;;;;;5013038;28;20029;-66
2021/03/26 11:44:19;;;;;;;10.55;3.65;;;15.60;60.20;;;;;;5028805;28;20078;-67
2021/03/26 11:46:54;;;;;;;9.65;3.72;;;15.60;60.50;;;;;;5031829;28;20045;-68
2021/03/26 11:49:39;;;;;;;7.97;4.07;;;15.70;60.10;;;;;;5030538;28;20029;-65
2021/03/26 11:52:07;;;;;;;6.93;3.65;;;15.80;59.50;;;;;;5034236;28;20037;-66
2021/03/26 11:54:55;;;;;;;7.60;3.85;;;15.80;59.50;;;;;;5051429;28;20021;-67
2021/03/26 11:57:57;;;;;;;6.88;3.45;;;15.80;59.20;;;;;;5052066;28;20048;-66
2021/03/26 12:00:28;;;;;;;5.78;3.58;;;15.90;59.00;;;;;;5036503;28;20112;-66
2021/03/26 12:02:57;;;;;;;;;;;15.90;58.60;;;;;;5012672;28;20044;-67
2021/03/26 12:05:38;;;;;;;8.45;3.58;;;15.90;58.10;;;;;;5015114;28;19913;-67
2021/03/26 12:08:39;;;;;;;9.30;2.90;;;15.80;57.40;;;;;;5012763;28;20032;-66
2021/03/26 12:11:13;;;;;;;5.87;3.43;;;15.60;58.20;;;;;;5009933;28;20029;-66
2021/03/26 12:14:21;;;;;;;7.90;3.15;;;15.50;59.00;;;;;;5014573;28;20043;-67
2021/03/26 12:17:07;;;;;;;7.78;3.22;;;15.60;59.30;;;;;;5012017;28;20087;-66
2021/03/26 12:19:36;;;;;;;7.00;3.10;;;15.90;58.60;;;;;;5012566;28;20030;-65
2021/03/26 12:22:18;;;;;;;8.50;3.05;;;16.10;57.30;;;;;;5011550;28;20075;-64
2021/03/26 12:25:09;;;;;;;4.85;2.83;;;16.10;56.60;;;;;;5018972;28;20041;-66
2021/03/26 12:27:42;;;;;;;;;;;16.00;57.00;;;;;;5029009;28;20097;-67
2021/03/26 12:30:21;;;;;;;9.48;3.22;;;16.00;56.50;;;;;;5011726;28;19913;-67
2021/03/26 12:32:56;;;;;;;7.65;3.25;;;16.00;56.70;;;;;;5012090;28;20037;-67
2021/03/26 12:35:46;;;;;;;7.07;3.33;;;16.00;56.40;;;;;;5022089;28;20031;-66
2021/03/26 12:38:48;;;;;;;7.35;3.15;;;16.00;56.30;;;;;;5015066;28;20061;-67
2021/03/26 12:41:33;;;;;;;6.30;3.35;;;16.00;55.60;;;;;;5011567;28;20036;-67
2021/03/26 12:44:05;;;;;;;6.60;2.97;;;15.90;55.80;;;;;;5011659;28;20022;-67
2021/03/26 12:47:09;;;;;;;5.97;3.47;;;15.90;55.40;;;;;;5012714;28;20085;-66
2021/03/26 12:49:46;;;;;;;9.43;3.42;;;15.80;55.50;;;;;;5011665;28;20032;-66
2021/03/26 12:52:43;;;;;;;10.20;3.50;;;15.90;55.50;;;;;;5012593;28;20057;-65
2021/03/26 12:55:33;;;;;;;6.70;3.40;;;15.80;55.40;;;;;;5012983;28;20037;-66
2021/03/26 12:58:19;;;;;;;9.82;3.70;;;15.80;55.60;;;;;;5011591;28;20050;-65
2021/03/26 13:01:03;;;;;;;7.65;3.47;;;15.90;55.80;;;;;;5012615;28;20034;-65
2021/03/26 13:04:00;;;;;;;8.05;4.03;;;15.90;55.70;;;;;;5012004;28;20068;-65
2021/03/26 13:06:39;;;;;;;9.57;3.63;;;16.10;55.70;;;;;;5020058;28;20139;-66
2021/03/26 13:09:41;;;;;;;10.23;3.90;;;16.20;55.10;;;;;;5017086;28;20493;-65
2021/03/26 13:12:23;;;;;;;5.95;3.85;;;16.20;55.10;;;;;;5033731;28;20037;-65
2021/03/26 13:14:52;;;;;;;;;;;16.20;54.80;;;;;;5035830;28;20036;-66
2021/03/26 13:17:25;;;;;;;10.23;4.15;;;16.30;55.10;;;;;;5035054;28;19927;-66
2021/03/26 13:19:59;;;;;;;6.97;3.63;;;16.50;55.10;;;;;;5035483;28;20021;-66
2021/03/26 13:22:34;;;;;;;8.70;4.80;;;16.70;55.20;;;;;;5035719;28;20032;-66
2021/03/26 13:25:20;;;;;;;6.40;4.28;;;16.80;54.10;;;;;;5034622;28;20397;-65
2021/03/26 13:28:04;;;;;;;8.77;4.32;;;16.70;53.20;;;;;;5034996;28;20090;-65
2021/03/26 13:30:44;;;;;;;7.88;4.60;;;16.70;52.90;;;;;;5035671;28;20029;-65
2021/03/26 13:33:15;;;;;;;8.68;4.05;;;16.60;53.50;;;;;;5034615;28;20021;-66
2021/03/26 13:35:47;;;;;;;;;;;16.40;54.10;;;;;;5035891;28;20021;-66
2021/03/26 13:38:21;;;;;;;9.82;4.47;;;16.40;53.60;;;;;;5035380;28;20261;-66
2021/03/26 13:40:50;;;;;;;7.45;4.35;;;16.30;53.20;;;;;;5035085;28;20064;-66
2021/03/26 13:43:19;;;;;;;7.55;3.88;;;16.10;53.60;;;;;;5035613;28;20053;-66
2021/03/26 13:46:07;;;;;;;10.02;4.38;;;16.20;54.50;;;;;;5033313;28;20401;-66
2021/03/26 13:48:43;;;;;;;7.38;4.25;;;16.30;54.10;;;;;;5035247;28;20096;-66
2021/03/26 13:51:13;;;;;;;8.65;4.15;;;16.30;54.30;;;;;;5034870;28;20484;-65
2021/03/26 13:53:49;;;;;;;9.52;3.67;;;16.30;54.80;;;;;;5033258;28;20053;-66
2021/03/26 13:56:24;;;;;;;4.93;3.97;;;16.20;54.00;;;;;;5035192;28;20021;-66
2021/03/26 13:58:58;;;;;;;4.82;3.47;;;16.20;54.10;;;;;;5034353;28;20041;-66
2021/03/26 14:01:31;;;;;;;9.23;3.75;;;16.20;54.50;;;;;;5034389;28;20033;-64
2021/03/26 14:03:59;;;;;;;10.77;3.70;;;16.20;54.40;;;;;;5034828;28;20033;-65
2021/03/26 14:06:31;;;;;;;5.90;3.70;;;16.20;54.00;;;;;;5035024;28;20036;-65
2021/03/26 14:09:16;;;;;;;6.35;3.22;;;16.20;53.20;;;;;;5034555;28;20025;-65
2021/03/26 14:12:06;;;;;;;7.78;3.20;;;16.10;53.00;;;;;;5033566;28;20030;-66
2021/03/26 14:14:44;;;;;;;6.93;3.00;;;16.00;53.00;;;;;;5034071;28;20029;-67
2021/03/26 14:17:36;;;;;;;3.72;2.40;;;16.00;52.70;;;;;;5034073;28;20018;-66
2021/03/26 14:20:04;;;;;;;9.55;2.88;;;15.90;52.70;;;;;;5034354;28;20025;-66
2021/03/26 14:22:48;;;;;;;6.28;2.47;;;15.80;53.40;;;;;;5032599;28;20026;-65
2021/03/26 14:25:36;;;;;;;6.00;2.50;;;15.80;53.50;;;;;;5034664;28;20040;-65
2021/03/26 14:28:20;;;;;;;4.85;2.30;;;15.90;53.30;;;;;;5032223;28;20087;-66
2021/03/26 14:31:09;;;;;;;5.47;2.47;;;15.90;52.50;;;;;;5033252;28;20074;-66
2021/03/26 14:33:56;;;;;;;5.90;2.38;;;16.00;53.00;;;;;;5034509;28;20075;-67
2021/03/26 14:36:49;;;;;;;4.78;2.55;;;16.00;52.40;;;;;;5033749;28;20099;-67
2021/03/26 14:39:48;;;;;;;11.82;4.28;;;16.00;52.10;;;;;;5034293;28;20033;-67
2021/03/26 14:42:31;;;;;;;6.10;2.42;;;15.90;52.30;;;;;;5011370;28;20149;-67
2021/03/26 14:45:05;;;;;;;5.55;3.08;;;15.90;52.70;;;;;;5033709;28;20047;-66
2021/03/26 14:47:38;;;;;;;3.58;2.78;;;15.90;52.80;;;;;;5034265;28;20025;-67
2021/03/26 14:50:07;;;;;;;5.50;2.30;;;15.80;52.60;;;;;;5033240;28;20105;-67
2021/03/26 14:52:47;;;;;;;4.05;2.00;;;15.60;53.50;;;;;;5033983;28;20026;-66
2021/03/26 14:55:12;;;;;;;4.68;2.00;;;15.60;53.60;;;;;;5034258;28;20049;-68
2021/03/26 14:57:53;;;;;;;6.90;2.22;;;15.80;53.50;;;;;;5033017;28;20069;-67
2021/03/26 15:00:33;;;;;;;6.95;2.20;;;15.90;52.70;;;;;;5034213;28;20057;-66
2021/03/26 15:03:17;;;;;;;3.67;2.10;;;15.90;52.50;;;;;;5032793;28;20026;-66
2021/03/26 15:06:04;;;;;;;5.18;2.10;;;15.90;52.20;;;;;;5033927;28;20041;-66
2021/03/26 15:08:45;;;;;;;6.82;2.20;;;15.80;52.20;;;;;;5033827;28;20021;-66
2021/03/26 15:11:37;;;;;;;4.07;1.83;;;15.80;52.30;;;;;;5033062;28;20039;-67
2021/03/26 15:14:15;;;;;;;4.53;2.30;;;15.70;52.90;;;;;;5027421;28;20037;-65
2021/03/26 15:16:50;;;;;;;5.45;2.42;;;15.50;53.10;;;;;;5033518;28;20026;-67
2021/03/26 15:19:22;;;;;;;7.90;2.67;;;15.40;53.60;;;;;;5033660;28;20116;-68
2021/03/26 15:22:10;;;;;;;5.60;2.72;;;15.30;54.30;;;;;;5033199;28;20083;-66
2021/03/26 15:24:43;;;;;;;5.68;2.20;;;15.40;54.30;;;;;;5032836;28;20032;-66
2021/03/26 15:27:29;;;;;;;5.13;2.10;;;15.60;54.20;;;;;;5031930;28;20033;-65
2021/03/26 15:30:13;;;;;;;6.32;2.47;;;15.70;53.50;;;;;;5032344;28;20033;-67
2021/03/26 15:32:48;;;;;;;5.45;2.28;;;15.90;53.30;;;;;;5032638;28;20037;-66
2021/03/26 15:35:28;;;;;;;5.57;2.03;;;16.00;53.40;;;;;;5033224;28;20029;-66
2021/03/26 15:37:59;;;;;;;7.70;2.42;;;16.10;52.60;;;;;;5032765;28;20025;-66
2021/03/26 15:40:32;;;;;;;5.93;2.42;;;16.10;52.30;;;;;;5033295;28;20365;-66
2021/03/26 15:43:09;;;;;;;9.65;2.78;;;16.10;52.20;;;;;;5033066;28;20025;-66
2021/03/26 15:45:38;;;;;;;4.72;2.22;;;16.10;51.70;;;;;;5032263;28;20509;-65
2021/03/26 15:48:31;;;;;;;3.22;2.08;;;16.00;52.10;;;;;;5032560;28;20067;-66
2021/03/26 15:51:22;;;;;;;7.60;3.58;;;15.90;52.30;;;;;;5032512;28;20033;-66
2021/03/26 15:54:32;;;;;;;5.55;2.47;;;15.90;52.60;;;;;;5021509;28;20103;-66
2021/03/26 15:57:11;;;;;;;6.47;2.50;;;15.80;52.70;;;;;;5032645;28;20026;-66
2021/03/26 15:59:49;;;;;;;5.25;2.42;;;15.80;53.30;;;;;;5030486;28;20140;-67
2021/03/26 16:02:43;;;;;;;4.28;2.35;;;15.70;53.40;;;;;;5039900;28;20026;-68
2021/03/26 16:05:34;;;;;;;7.25;3.00;;;15.60;53.50;;;;;;5031114;28;20029;-70
2021/03/26 16:08:23;;;;;;;5.85;3.30;;;15.50;54.20;;;;;;5022565;28;20033;-69
2021/03/26 16:11:12;;;;;;;6.65;3.47;;;15.40;54.80;;;;;;5043463;28;20079;-69
2021/03/26 16:14:01;;;;;;;5.18;2.80;;;15.20;54.20;;;;;;5032891;28;20112;-67
2021/03/26 16:16:36;;;;;;;7.45;3.40;;;15.00;54.80;;;;;;5032933;28;20098;-66
2021/03/26 16:19:26;;;;;;;10.57;3.45;;;15.00;55.00;;;;;;5016262;28;20017;-67
2021/03/26 16:22:04;;;;;;;8.55;3.55;;;14.90;55.40;;;;;;5030427;28;20029;-65
2021/03/26 16:24:47;;;;;;;4.80;3.45;;;14.80;55.60;;;;;;5035440;28;20113;-69
2021/03/26 16:27:55;;;;;;;6.07;3.05;;;14.80;56.00;;;;;;5051481;28;20025;-67
2021/03/26 16:30:48;;;;;;;5.03;3.13;;;14.80;56.70;;;;;;5043767;28;20059;-68
2021/03/26 16:33:39;;;;;;;11.27;3.63;;;14.70;55.80;;;;;;5016514;28;20029;-63
2021/03/26 16:36:08;;;;;;;6.07;3.58;;;14.70;56.30;;;;;;5010047;28;20906;-65
2021/03/26 16:38:41;;;;;;;4.90;3.13;;;14.70;56.20;;;;;;5012288;28;20105;-67
2021/03/26 16:41:37;;;;;;;5.25;3.70;;;14.80;56.40;;;;;;5013982;28;20041;-70
2021/03/26 16:44:37;;;;;;;6.57;3.95;;;14.90;56.30;;;;;;5016010;28;20022;-73
2021/03/26 16:47:22;;;;;;;5.60;3.35;;;14.80;56.60;;;;;;5015548;28;20564;-68
2021/03/26 16:50:23;;;;;;;4.32;3.05;;;14.70;56.30;;;;;;5014039;28;20116;-71
2021/03/26 16:52:57;;;;;;;6.50;3.75;;;14.50;56.00;;;;;;5004958;28;20025;-68
2021/03/26 16:55:37;;;;;;;8.98;4.10;;;14.40;56.70;;;;;;5038776;28;20030;-68
2021/03/26 16:58:03;;;;;;;6.25;3.25;;;14.20;56.90;;;;;;5039229;28;20045;-72
2021/03/26 17:00:50;;;;;;;5.47;3.00;;;14.00;57.50;;;;;;5029016;28;20061;-69
2021/03/26 17:03:30;;;;;;;5.45;3.05;;;14.00;58.90;;;;;;5038124;28;20033;-71
2021/03/26 17:06:12;;;;;;;5.25;3.30;;;13.80;58.20;;;;;;5022763;28;20034;-72
2021/03/26 17:08:46;;;;;;;5.57;3.17;;;13.80;58.70;;;;;;5034205;28;20030;-72
2021/03/26 17:11:32;;;;;;;4.20;3.20;;;13.80;58.80;;;;;;5034868;28;20084;-70
2021/03/26 17:14:31;;;;;;;4.72;2.58;;;13.80;58.80;;;;;;5022308;28;20080;-69
2021/03/26 17:17:15;;;;;;;6.28;3.03;;;13.80;59.20;;;;;;5034351;28;20091;-68
2021/03/26 17:20:01;;;;;;;6.10;2.90;;;13.80;59.00;;;;;;5035119;28;20104;-67
2021/03/26 17:22:55;;;;;;;7.47;2.83;;;13.80;59.20;;;;;;5035088;28;20481;-65
2021/03/26 17:25:48;;;;;;;3.63;2.08;;;13.70;59.10;;;;;;5032546;28;20034;-70
2021/03/26 17:28:38;;;;;;;7.93;3.78;;;13.70;59.30;;;;;;5020021;28;20033;-68
2021/03/26 17:31:40;;;;;;;5.60;2.80;;;13.70;59.50;;;;;;5034226;28;20448;-71
2021/03/26 17:34:31;;;;;;;4.32;2.55;;;13.70;59.80;;;;;;5034473;28;20029;-69
2021/03/26 17:37:17;;;;;;;4.20;2.63;;;13.70;60.00;;;;;;5034503;28;20121;-67
2021/03/26 17:40:14;;;;;;;4.45;2.33;;;13.60;59.70;;;;;;5032506;28;20393;-69
2021/03/26 17:43:08;;;;;;;5.88;2.15;;;13.60;60.20;;;;;;5014866;28;20026;-69
2021/03/26 17:45:56;;;;;;;3.72;2.10;;;13.60;60.10;;;;;;5013166;28;20469;-70
2021/03/26 17:48:47;;;;;;;6.07;2.40;;;13.60;60.10;;;;;;5014966;28;20076;-70
2021/03/26 17:51:54;;;;;;;2.65;2.28;;;13.50;60.20;;;;;;5033831;28;20040;-70
2021/03/26 17:54:58;;;;;;;3.85;2.30;;;13.40;61.10;;;;;;5034157;28;20133;-71
2021/03/26 17:57:53;;;;;;;4.22;2.28;;;13.20;61.30;;;;;;5000272;28;20084;-67
2021/03/26 18:00:33;;;;;;;5.70;2.10;;;13.10;61.80;;;;;;5034003;28;20377;-68
2021/03/26 18:03:29;;;;;;;3.75;2.33;;;13.00;62.30;;;;;;5052805;28;20357;-73
2021/03/26 18:06:31;;;;;;;3.05;2.13;;;12.90;62.70;;;;;;5017775;28;20065;-75
2021/03/26 18:09:03;;;;;;;5.72;3.17;;;12.80;63.70;;;;;;5017871;28;20048;-73
2021/03/26 18:11:43;;;;;;;;;;;12.70;63.80;;;;;;5019295;28;20024;-72
2021/03/26 18:14:26;;;;;;;6.78;2.53;;;12.60;64.10;;;;;;5013285;28;19909;-72
2021/03/26 18:17:01;;;;;;;2.88;2.50;;;12.50;64.90;;;;;;5016269;28;20017;-73
2021/03/26 18:20:02;;;;;;;5.25;3.08;;;12.50;65.20;;;;;;5033178;28;20041;-72
2021/03/26 18:22:54;;;;;;;6.28;2.58;;;12.40;65.40;;;;;;4980819;28;20382;-72
2021/03/26 18:25:20;;;;;;;;;;;12.30;65.50;;;;;;5004276;28;20085;-71
2021/03/26 18:28:07;;;;;;;5.38;2.38;;;12.30;65.40;;;;;;5018620;28;19955;-72
2021/03/26 18:30:50;;;;;;;6.57;3.25;;;12.20;65.50;;;;;;5026337;28;20061;-73
2021/03/26 18:33:53;;;;;;;4.88;2.35;;;12.10;66.00;;;;;;5013802;28;20057;-73
2021/03/26 18:36:26;;;;;;;4.25;2.60;;;12.10;66.80;;;;;;5013926;28;20033;-72
2021/03/26 18:39:14;;;;;;;5.43;2.45;;;12.00;67.00;;;;;;5013512;28;20022;-72
2021/03/26 18:42:08;;;;;;;8.02;2.53;;;12.00;67.30;;;;;;5012801;28;20396;-68
2021/03/26 18:44:39;;;;;;;5.00;2.15;;;11.90;67.60;;;;;;5013838;28;20033;-70
2021/03/26 18:47:20;;;;;;;4.18;2.58;;;11.90;68.10;;;;;;5012231;28;20065;-67
2021/03/26 18:50:05;;;;;;;4.47;2.08;;;11.80;68.50;;;;;;5012859;28;20080;-68
2021/03/26 18:52:52;;;;;;;6.22;2.50;;;11.70;68.40;;;;;;5010044;28;20544;-67
2021/03/26 18:55:55;;;;;;;4.65;2.38;;;11.70;68.70;;;;;;5009572;28;20029;-67
2021/03/26 18:58:59;;;;;;;4.35;2.50;;;11.70;68.90;;;;;;5010233;28;20054;-66
2021/03/26 19:01:32;;;;;;;4.90;2.55;;;11.60;69.10;;;;;;5022883;28;20025;-67
2021/03/26 19:04:30;;;;;;;3.42;2.28;;;11.50;69.40;;;;;;5047606;28;20028;-66
2021/03/26 19:07:14;;;;;;;3.13;2.30;;;11.50;70.10;;;;;;5014426;28;20045;-68
2021/03/26 19:10:19;;;;;;;4.95;2.92;;;11.40;70.30;;;;;;5009611;28;20021;-67
2021/03/26 19:12:45;;;;;;;5.13;2.50;;;11.30;70.40;;;;;;5015259;28;20512;-68
2021/03/26 19:15:52;;;;;;;5.57;2.38;;;11.30;71.30;;;;;;5009936;28;20033;-69
2021/03/26 19:18:41;;;;;;;5.45;2.40;;;11.30;71.20;;;;;;5009014;28;20038;-67
2021/03/26 19:21:23;;;;;;;4.63;2.70;;;11.20;71.30;;;;;;5005608;28;20049;-67
2021/03/26 19:24:04;;;;;;;6.82;3.22;;;11.20;71.50;;;;;;5008831;28;20030;-67
2021/03/26 19:26:39;;;;;;;3.28;2.67;;;11.10;71.60;;;;;;5007895;28;20037;-66
2021/03/26 19:29:22;;;;;;;7.07;3.35;;;11.10;72.10;;;;;;5010503;28;20548;-67
2021/03/26 19:32:13;;;;;;;4.60;3.10;;;11.10;72.60;;;;;;5009843;28;20026;-64
2021/03/26 19:35:11;;;;;;;6.05;3.10;;;11.00;72.90;;;;;;5016046;28;20036;-69
2021/03/26 19:38:00;;;;;;;4.75;2.78;;;10.90;73.00;;;;;;5020033;28;20045;-65
2021/03/26 19:41:01;;;;;;;5.32;3.13;;;10.90;73.30;;;;;;5029440;28;20033;-67
2021/03/26 19:43:48;;;;;;;5.45;3.45;;;10.80;74.00;;;;;;5016156;28;20034;-69
2021/03/26 19:46:29;;;;;;;5.57;3.25;;;10.70;74.40;;;;;;5021818;28;20104;-66
2021/03/26 19:49:16;;;;;;;4.95;3.67;;;10.60;75.00;;;;;;5014010;28;20026;-67
2021/03/26 19:52:07;;;;;;;8.68;3.92;;;10.50;75.40;;;;;;5010059;28;20029;-67
2021/03/26 19:54:48;;;;;;;5.70;4.22;;;10.50;75.80;;;;;;5029035;28;20076;-68
2021/03/26 19:57:39;;;;;;;6.05;4.55;;;10.40;76.10;;;;;;5028907;28;20053;-69
2021/03/26 20:00:16;;;;;;;4.88;3.75;;;10.30;76.10;;;;;;5014504;28;20086;-66
2021/03/26 20:02:54;;;;;;;9.35;4.70;;;10.30;76.60;;;;;;5042468;28;20025;-67
2021/03/26 20:05:55;;;;;;;6.38;4.18;;;10.20;76.90;;;;;;5048414;28;20033;-66
2021/03/26 20:08:37;;;;;;;8.20;4.15;;;10.10;77.20;;;;;;5048583;28;20112;-67
2021/03/26 20:11:23;;;;;;;7.93;4.40;;;10.10;77.40;;;;;;5048802;28;20025;-68
2021/03/26 20:14:03;;;;;;;8.35;4.70;;;10.00;77.70;;;;;;5006865;28;20040;-66
2021/03/26 20:16:42;;;;;;;9.07;4.68;;;10.00;77.70;;;;;;5008874;28;20466;-66
2021/03/26 20:19:25;;;;;;;6.93;4.63;;;10.00;77.90;;;;;;5008913;28;20030;-68
2021/03/26 20:22:03;;;;;;;6.88;4.28;;;10.00;78.60;;;;;;5020468;28;20036;-69
2021/03/26 20:24:45;;;;;;;7.05;4.40;;;10.10;78.00;;;;;;5009173;28;20022;-67
2021/03/26 20:27:19;;;;;;;7.43;4.50;;;10.10;77.80;;;;;;5018554;28;20033;-68
2021/03/26 20:30:24;;;;;;;6.00;4.63;;;10.20;77.80;;;;;;5028742;28;20033;-68
2021/03/26 20:33:14;;;;;;;5.88;3.78;;;10.30;77.70;;;;;;5005933;28;20068;-68
2021/03/26 20:35:52;;;;;;;7.28;4.50;;;10.40;77.50;;;;;;5010047;28;20455;-67
2021/03/26 20:38:46;;;;;;;5.95;4.53;;;10.50;77.20;;;;;;5008690;28;20614;-69
2021/03/26 20:41:23;;;;;;;6.45;4.70;;;10.60;76.90;;;;;;5024908;28;20030;-68
2021/03/26 20:44:43;;;;;;;6.25;4.65;;;10.80;76.30;;;;;;5017535;28;20105;-69
2021/03/26 20:47:40;;;;;;;5.57;3.83;;;10.90;75.70;;;;;;4991400;28;20041;-70
2021/03/26 20:50:27;;;;;;;5.65;3.70;;;11.00;75.00;;;;;;5025615;28;20033;-67
2021/03/26 20:53:20;;;;;;;5.32;3.55;;;11.10;75.00;;;;;;5019816;28;20036;-68
2021/03/26 20:55:50;;;;;;;5.25;3.42;;;11.20;74.40;;;;;;5027101;28;20079;-66
2021/03/26 20:58:30;;;;;;;6.60;4.00;;;11.30;74.00;;;;;;5026989;28;20056;-67
2021/03/26 21:01:08;;;;;;;5.43;3.83;;;11.40;73.80;;;;;;5030598;28;20029;-67
2021/03/26 21:04:07;;;;;;;5.47;3.83;;;11.50;73.50;;;;;;5047342;28;20028;-67
2021/03/26 21:06:38;;;;;;;3.90;3.13;;;11.50;72.80;;;;;;5014760;28;20038;-66
2021/03/26 21:09:25;;;;;;;5.70;3.75;;;11.60;72.60;;;;;;5021544;28;20021;-67
2021/03/26 21:12:05;;;;;;;5.22;3.50;;;11.70;72.00;;;;;;5009512;28;20026;-67
2021/03/26 21:14:52;;;;;;;6.45;4.38;;;11.70;71.90;;;;;;5015335;28;20835;-68
2021/03/26 21:18:12;;;;;;;8.10;4.47;;;11.80;72.00;;;;;;5009423;28;20037;-68
2021/03/26 21:20:49;;;;;;;7.28;4.20;;;11.90;71.30;;;;;;4999622;28;20533;-68
2021/03/26 21:23:15;;;;;;;5.25;3.40;;;11.90;70.70;;;;;;5027561;28;20033;-67
2021/03/26 21:25:48;;;;;;;8.18;3.78;;;11.90;70.80;;;;;;5026907;28;20102;-67
2021/03/26 21:28:55;;;;;;;6.25;3.72;;;11.90;70.80;;;;;;5028821;28;20030;-68
2021/03/26 21:31:46;;;;;;;6.95;4.00;;;11.90;70.70;;;;;;5031189;28;20021;-68
2021/03/26 21:34:31;;;;;;;6.97;4.63;;;12.00;70.50;;;;;;5031322;28;20048;-67
2021/03/26 21:37:19;;;;;;;6.03;3.60;;;12.00;70.30;;;;;;5030586;28;20029;-67
2021/03/26 21:39:50;;;;;;;6.95;3.60;;;12.10;70.40;;;;;;5026624;28;20044;-68
2021/03/26 21:42:24;;;;;;;5.32;3.45;;;12.10;70.00;;;;;;5031201;28;20049;-67
2021/03/26 21:45:07;;;;;;;5.57;3.67;;;12.20;69.90;;;;;;5020178;28;20386;-67
2021/03/26 21:47:39;;;;;;;5.43;4.03;;;12.30;69.80;;;;;;5010421;28;20037;-68
2021/03/26 21:50:26;;;;;;;4.15;3.67;;;12.30;70.70;;;;;;5011096;28;20033;-67
2021/03/26 21:52:52;;;;;;;6.05;4.35;;;12.30;71.00;;;;;;5009033;28;20030;-67
2021/03/26 21:55:25;;;;;;;6.38;4.13;;;12.30;70.50;;;;;;5022720;28;20037;-67
2021/03/26 21:58:10;;;;;;;6.75;4.13;;;12.30;70.20;;;;;;5026747;28;20054;-68
2021/03/26 22:00:55;;;;;;;7.07;4.45;;;12.40;70.10;;;;;;5010798;28;20457;-67
2021/03/26 22:03:46;;;;;;;5.65;4.07;;;12.40;69.70;;;;;;5009546;28;20132;-66
2021/03/26 22:06:42;;;;;;;8.13;6.20;;;12.40;69.60;;;;;;5022542;28;20045;-68
2021/03/26 22:09:21;;;;;;;8.93;3.65;;;12.30;70.80;;;;;;5030694;28;20520;-68
2021/03/26 22:12:13;;;;;;;7.30;3.80;;;12.10;72.80;;;;;;5030219;28;20052;-65
2021/03/26 22:15:04;;;;;;;6.88;4.05;;;11.90;74.50;;;;;;5024764;28;20136;-68
2021/03/26 22:17:44;;;;;;;4.97;4.05;;;11.70;75.50;;;;;;5030770;28;20038;-66
2021/03/26 22:20:36;;;;;;;6.47;4.20;;;11.60;76.80;;;;;;5027275;28;20021;-67
2021/03/26 22:23:23;;;;;;;15.60;8.23;;;11.50;77.70;;;;;;5029519;28;20033;-67
2021/03/26 22:25:49;;;;;;;4.75;3.65;;;11.20;78.80;;;;;;5012921;28;20050;-68
2021/03/26 22:28:26;;;;;;;8.70;4.47;;;10.90;80.00;;;;;;5014346;28;20018;-66
2021/03/26 22:31:08;;;;;;;6.43;3.53;;;10.70;81.20;;;;;;5027450;28;20030;-66
2021/03/26 22:33:40;;;;;;;;;;;10.50;82.20;;;;;;5028229;28;20050;-65
2021/03/26 22:36:26;;;;;;;4.70;3.23;;;10.30;82.90;;;;;;5018288;28;20364;-67
2021/03/26 22:39:28;;;;;;;3.55;2.65;;;10.00;84.50;;;;;;5012550;28;20356;-66
2021/03/26 22:42:16;;;;;;;4.13;2.92;;;9.90;85.20;;;;;;5020598;28;20049;-66
2021/03/26 22:44:53;;;;;;;5.85;4.20;;;9.80;86.20;;;;;;5025386;28;20135;-66
2021/03/26 22:47:35;;;;;;;6.15;3.88;;;9.60;86.80;;;;;;5032361;28;20104;-66
2021/03/26 22:50:34;;;;;;;5.15;3.10;;;9.50;87.20;;;;;;5033475;28;20028;-65
2021/03/26 22:53:15;;;;;;;5.05;3.85;;;9.40;87.60;;;;;;5033775;28;20036;-66
2021/03/26 22:56:16;;;;;;;6.00;4.38;;;9.40;88.10;;;;;;5033715;28;20022;-66
2021/03/26 22:58:51;;;;;;;9.15;3.95;;;9.30;88.80;;;;;;5032276;28;20041;-66
2021/03/26 23:01:17;;;;;;;4.28;3.50;;;9.20;89.00;;;;;;5033440;28;20026;-65
2021/03/26 23:03:43;;;;;;;4.63;3.78;;;9.10;88.70;;;;;;5034027;28;20025;-66
2021/03/26 23:06:33;;;;;;;4.20;3.28;;;9.00;88.40;;;;;;5033432;28;20040;-65
2021/03/26 23:09:02;;;;;;;4.40;2.75;;;8.90;88.50;;;;;;5032736;28;20025;-66